Rankings de siempre
Mejores tiempos personales válidos de atleta a través de todos los eventos y temporadas. Cada atleta aparece una vez por división.
Busca por nombre y abre la página donde está clasificado este récord de división.
104,510 atletas clasificados
| Pos. | Pos. AG | Atleta | Nacionalidad | Categoría de edad | TiempoMejor tiempo | Diferencia |
|---|---|---|---|---|---|---|
| 89901 | #21519 | Madeline LimardoUSA · W 30-34 · AG #21519 | USA | W 30-34 | 1:58:48 | +79:12 |
| 89902 | #21769 | Helen SalinasUSA · W 25-29 · AG #21769 | USA | W 25-29 | 1:58:48 | +79:12 |
| 89903 | #404 | Karen StoryGBR · W 60-64 · AG #404 | GBR | W 60-64 | 1:58:48 | +79:12 |
| 89904 | #406 | Nav TakharSIN · W 60-64 · AG #406 | SIN | W 60-64 | 1:58:48 | +79:12 |
| 89905 | #21770 | Amber Lee JonesAUS · W 25-29 · AG #21770 | AUS | W 25-29 | 1:58:49 | +79:13 |
| 89906 | #3125 | Jenny BeltreUSA · W 50-54 · AG #3125 | USA | W 50-54 | 1:58:49 | +79:13 |
| 89907 | #21771 | Noëlle DerksNED · W 25-29 · AG #21771 | NED | W 25-29 | 1:58:49 | +79:13 |
| 89908 | #21772 | Freya SleemanGBR · W 25-29 · AG #21772 | GBR | W 25-29 | 1:58:49 | +79:13 |
| 89909 | #11635 | Kimberly LanfordUSA · W 40-44 · AG #11635 | USA | W 40-44 | 1:58:49 | +79:13 |
| 89910 | #1195 | 金梅 刘CHN · W 55-59 · AG #1195 | CHN | W 55-59 | 1:58:49 | +79:13 |
| 89911 | #16569 | Carmel GlumacUSA · W 35-39 · AG #16569 | USA | W 35-39 | 1:58:49 | +79:13 |
| 89912 | #6528 | Aimee FosterGBR · W 45-49 · AG #6528 | GBR | W 45-49 | 1:58:49 | +79:13 |
| 89913 | #21773 | Livia PerronaceITA · W 25-29 · AG #21773 | ITA | W 25-29 | 1:58:50 | +79:14 |
| 89914 | #11636 | Cha’Nyra DavidsonUSA · W 40-44 · AG #11636 | USA | W 40-44 | 1:58:50 | +79:14 |
| 89915 | #66 | Brenda LightCAN · W 65-69 · AG #66 | CAN | W 65-69 | 1:58:50 | +79:14 |
| 89916 | #11637 | Martina ParatCRO · W 40-44 · AG #11637 | CRO | W 40-44 | 1:58:50 | +79:14 |
| 89917 | #11638 | Natasha OsmanSIN · W 40-44 · AG #11638 | SIN | W 40-44 | 1:58:50 | +79:14 |
| 89918 | #12599 | Putri Setiawati HalimINA · W 16-24 · AG #12599 | INA | W 16-24 | 1:58:50 | +79:14 |
| 89919 | #12600 | Alysha AVRAMAUS · W 16-24 · AG #12600 | AUS | W 16-24 | 1:58:50 | +79:14 |
| 89920 | #3126 | Mel IsaacsNZL · W 50-54 · AG #3126 | NZL | W 50-54 | 1:58:50 | +79:14 |
| 89921 | #6529 | ?Joy HutchinsonGBR · W 45-49 · AG #6529 | GBR | W 45-49 | 1:58:50 | +79:14 |
| 89922 | #21520 | Margot GasperiniFRA · W 30-34 · AG #21520 | FRA | W 30-34 | 1:58:50 | +79:14 |
| 89923 | #16570 | Michaela CabejškováCZE · W 35-39 · AG #16570 | CZE | W 35-39 | 1:58:50 | +79:14 |
| 89924 | #6530 | Queenie WuHKG · W 45-49 · AG #6530 | HKG | W 45-49 | 1:58:50 | +79:14 |
| 89925 | #12601 | Lisa van der VliesNED · W 16-24 · AG #12601 | NED | W 16-24 | 1:58:50 | +79:14 |
Página 3,597 de 4,181